aviador You're here:

LEVC Decoded Metar

VALENCIA in SPAIN
Report Time2014-11-28 03:30:00
UTC Time2014-11-28 03:58:29
Flight Rules ifr IFR
WindVRB at 01 kt
Visibility3000 m
Phenomena:Light Drizzle
Mist
Clouds:Scattered 015 Hf
Broken 060 Hf
Ceiling6,000 ft
Temp12°C (ISA -3)
Dew Point12°C (100% RH)
QNH0993 hPa
Density Alt768 ft
Elevation203 ft
Report Wrong Elevation
Raw Report
LEVC 280330Z VRB01KT 3000 BR -DZ SCT015 BKN060 12/12 Q0993
NOSIG=

Extra information for LEVC:More info

Metar Taf Metar & Taf Last 4 Metars F.Rules Stats Wind Profile Meteogram Temp Stats Airport Information Weather charts Add Link Nearby VenuesMetar ALERT Operation Metar Decoded Social comments

Webcam Valencia